In Rescue
 
Open Full Screen Window  High Contrast Mode
July 13, 2020 10:19 PM EDT
Weather Information
Wind Direction
  ---
Wind Speed
  00 kt (0 mph)
Wind Gust
  00 kt (0 mph)
Altimeter
29.99 in
Visibility
10 SM
Temperature
20° C
68° F
Dewpoint
16° C
61° F
Humidity
78%
Sky Condition
Clear
VFR

METAR KDUH 140219Z AUTO 00000KT 10SM CLR 20/16 A2999 RMK AO2 T01960157

FAA Disclaimer: The data displayed is for advisory purposes only and is not to be used for flight planning or operations.